UMBB

Brest Airport

Brest, Belarus
TAF UMBB 210805Z 2109/2118 27006G11MPS 9999 SCT020 TEMPO 2109/2117 29009G14MPS
Issued Valid From Valid To
Apr-21 @ 08:05 UTC
(2 hours ago)
Apr-21 @ 09:00 UTC
(38 minutes ago)
Apr-21 @ 18:00 UTC
(in 8 hours)
Apr-21 @ 09:00 to Apr-21 @ 18:00
TAF UMBB 210805Z 2109/2118 27006G11MPS 9999 SCT020
Wind Visibility Clouds
270° at 12 knots
 Gusting to 21 knots
10,000+ meters
  • Scattered at 2,000' AGL
Temporary Apr-21 @ 09:00 to Apr-21 @ 17:00
TEMPO 2109/2117 29009G14MPS
Wind
290° at 17 knots
 Gusting to 27 knots
TAF UMBB 210805Z 2109/2118 27006G11MPS 9999 SCT020 TEMPO 2109/2117 29009G14MPS
Issued Apr-21 @ 08:05 UTC
(2 hours ago)
Valid From Apr-21 @ 09:00 UTC
(38 minutes ago)
Valid To Apr-21 @ 18:00 UTC
(in 8 hours)
Apr-21 @ 09:00 - Apr-21 @ 18:00
Wind Visibility
270° at 12 knots
 Gusting to 21 knots
10,000+ meters
Clouds
  • Scattered at 2,000' AGL
Temporary Apr-21 @ 09:00 - Apr-21 @ 17:00
Wind
290° at 17 knots
 Gusting to 27 knots